Yeysk, Russia
Current Conditions -  °F | °C
As of 7:30 PM on Thursday 30 Oct 2014 (Local Time) from URRR Reporting Station
Clear Clear  
Wind Chill: 43°   Ceiling: Unl
Heat Index: 48°   Visibility: 6mi
Dew Point: 37°   Wind: 13mph
Humidity: 66%   Direction: 100°E
Pressure: 30.15"   Gusts: 20mph
Location:  46.7°N, 38.27°E
Report Text: URRR 301630Z 10006G09MPS CAVOK 09/03 Q1021 04CLRD70 NOSIG
Loading
Personal Weather Stations






























Interactive Weather Map
Tropical Storm Tracking
New forecast layout! Learn more

10-Day Weather Forecast

Advertisements
Track Severe Weather on mobile